El Redomon, Argentina
Current Conditions -  °F | °C
As of 5:00 PM on Sunday 25 Jan 2015 (Local Time) from SBUG Reporting Station
Scattered Clouds Scattered Clouds  
Wind Chill: 31°   Ceiling: Unl
Heat Index: 33°   Visibility: 6mi
Dew Point: 20°   Wind: 6mph
Humidity: 52%   Direction: 100°E
Pressure: 29.77"   Gusts: NA
Location:  31.14°S, 58.23°W
Report Text: SBUG 252000Z 10005KT 9999 FEW024TCU SCT024 31/20 Q1008
Loading
Personal Weather Stations






























Interactive Weather Map New forecast layout! Learn more

10-Day Weather Forecast

Advertisements
Track Severe Weather on mobile